Time;durP1;ratioP1;P1;durP2;ratioP2;P2;SDS_P1;SDS_P2;PMS_P1;PMS_P2;Temp;Humidity;BMP_temperature;BMP_pressure;BME280_temperature;BME280_humidity;BME280_pressure;Samples;Min_cycle;Max_cycle;Signal;HPM_P1;HPM_P2
2021/09/24 00:03:51;;;;;;;1.52;1.00;;;;;;;16.88;83.11;99480.58;2912170;81;21070;-72
2021/09/24 00:07:54;;;;;;;3.72;1.25;;;;;;;16.86;81.97;99475.90;2912104;81;20983;-73
2021/09/24 00:11:56;;;;;;;1.77;1.32;;;;;;;16.84;81.35;99497.59;2912448;81;21105;-72
2021/09/24 00:15:58;;;;;;;5.03;1.30;;;;;;;16.81;80.15;99479.66;2908966;81;21046;-72
2021/09/24 00:20:00;;;;;;;7.30;1.67;;;;;;;16.77;80.22;99463.61;2907347;82;20962;-72
2021/09/24 00:24:02;;;;;;;1.87;1.52;;;;;;;16.68;81.19;99469.06;2920655;78;21024;-72
2021/09/24 00:28:05;;;;;;;2.02;1.52;;;;;;;16.58;82.25;99479.75;2907122;82;20974;-73
2021/09/24 00:32:08;;;;;;;8.58;2.22;;;;;;;16.53;82.42;99468.25;2920666;81;21066;-72
2021/09/24 00:40:20;;;;;;;3.67;1.57;;;;;;;16.41;82.97;99460.64;2889609;80;21188;-72
2021/09/24 00:44:28;;;;;;;2.40;1.40;;;;;;;16.31;83.64;99480.23;2898466;82;21106;-72
2021/09/24 00:48:35;;;;;;;2.87;1.12;;;;;;;16.21;84.15;99494.40;2898387;82;21042;-73
2021/09/24 00:52:38;;;;;;;1.57;1.27;;;;;;;16.06;84.72;99491.69;2898599;81;21023;-71
2021/09/24 00:56:41;;;;;;;2.35;1.00;;;;;;;15.93;85.63;99477.56;2898572;82;21030;-72
2021/09/24 01:00:43;;;;;;;2.67;1.02;;;;;;;15.92;85.22;99474.55;2898919;82;21002;-72
2021/09/24 01:04:46;;;;;;;2.08;1.15;;;;;;;15.88;85.42;99461.97;2898566;82;20959;-72
2021/09/24 01:08:51;;;;;;;2.00;1.25;;;;;;;15.79;85.91;99470.59;2898400;82;21014;-72
2021/09/24 01:12:53;;;;;;;2.92;0.98;;;;;;;15.67;85.71;99474.69;2898813;82;20932;-72
2021/09/24 01:16:57;;;;;;;10.20;1.98;;;;;;;15.62;85.27;99476.56;2898688;82;21018;-73
2021/09/24 01:21:00;;;;;;;4.85;1.40;;;;;;;15.57;85.92;99476.27;2899506;82;20987;-72
2021/09/24 01:25:04;;;;;;;4.22;1.10;;;;;;;15.56;87.34;99486.17;2899359;80;20995;-74
2021/09/24 01:29:06;;;;;;;1.60;0.70;;;;;;;15.55;88.25;99485.84;2899373;80;21244;-73
2021/09/24 01:33:09;;;;;;;6.15;1.40;;;;;;;15.60;88.33;99483.13;2899422;82;20955;-73
2021/09/24 01:37:12;;;;;;;2.92;1.27;;;;;;;15.60;88.30;99484.47;2898377;82;21083;-72
2021/09/24 01:41:14;;;;;;;2.37;0.88;;;;;;;15.62;88.03;99497.19;2898394;82;21102;-74
2021/09/24 01:45:16;;;;;;;2.62;1.00;;;;;;;15.60;87.28;99487.16;2898603;82;20995;-74
2021/09/24 01:49:41;;;;;;;3.35;1.90;;;;;;;15.59;86.98;99501.05;2898624;82;20979;-74
2021/09/24 01:53:44;;;;;;;2.05;1.85;;;;;;;15.55;87.26;99511.31;2898748;82;21539;-74
2021/09/24 01:57:46;;;;;;;4.28;1.95;;;;;;;15.54;87.59;99515.50;2899001;82;20983;-74
2021/09/24 02:01:49;;;;;;;6.85;1.57;;;;;;;15.50;87.47;99523.05;2899217;82;20986;-73
2021/09/24 02:05:51;;;;;;;9.10;1.62;;;;;;;15.46;87.85;99532.45;2899024;82;21002;-74
2021/09/24 02:10:02;;;;;;;3.17;1.37;;;;;;;15.45;88.19;99533.99;2898759;81;20963;-74
2021/09/24 02:14:06;;;;;;;8.40;1.82;;;;;;;15.37;88.64;99525.48;2898961;82;21070;-73
2021/09/24 02:18:08;;;;;;;2.47;1.10;;;;;;;15.39;88.48;99546.23;2898397;82;21054;-73
2021/09/24 02:22:18;;;;;;;4.58;2.55;;;;;;;15.34;87.80;99536.04;2898814;82;20986;-74
2021/09/24 02:26:22;;;;;;;8.18;1.85;;;;;;;15.40;87.63;99534.51;2899156;82;21039;-74
2021/09/24 02:30:24;;;;;;;4.62;1.30;;;;;;;15.40;85.92;99535.84;2898972;82;20994;-74
2021/09/24 02:35:10;;;;;;;18.85;2.22;;;;;;;15.44;85.47;99521.08;2898641;82;20979;-73
2021/09/24 02:39:17;;;;;;;5.78;2.05;;;;;;;15.40;85.14;99529.97;2867455;82;21457;-72
2021/09/24 02:43:19;;;;;;;2.55;1.67;;;;;;;15.37;84.74;99541.05;2840459;84;20951;-74
2021/09/24 02:47:21;;;;;;;11.85;2.47;;;;;;;15.26;83.44;99563.70;2840322;84;21015;-73
2021/09/24 02:51:23;;;;;;;6.58;2.00;;;;;;;15.25;83.40;99559.36;2840660;84;20928;-74
2021/09/24 02:55:25;;;;;;;4.97;2.10;;;;;;;15.22;82.12;99578.95;2840447;84;20971;-73
2021/09/24 02:59:29;;;;;;;11.57;3.42;;;;;;;15.13;80.75;99570.11;2840619;84;20979;-70
2021/09/24 03:03:32;;;;;;;15.93;3.55;;;;;;;15.12;79.63;99588.53;2840323;84;20998;-73
2021/09/24 03:07:34;;;;;;;7.08;3.12;;;;;;;15.08;78.93;99588.55;2840708;84;21047;-73
2021/09/24 03:11:37;;;;;;;8.83;3.50;;;;;;;15.06;79.22;99612.84;2840375;83;21043;-72
2021/09/24 03:15:39;;;;;;;11.35;3.20;;;;;;;14.99;78.11;99610.50;2840859;84;21022;-74
2021/09/24 03:19:42;;;;;;;4.50;2.60;;;;;;;14.98;77.44;99620.39;2841314;84;20995;-74
2021/09/24 03:23:46;;;;;;;7.83;2.30;;;;;;;14.92;77.80;99614.36;2840727;84;20983;-73
2021/09/24 03:27:49;;;;;;;9.53;3.72;;;;;;;14.83;77.80;99617.56;2840829;84;21046;-74
2021/09/24 03:31:51;;;;;;;11.48;2.27;;;;;;;14.73;77.02;99641.02;2840732;84;21031;-75
2021/09/24 03:36:22;;;;;;;7.30;2.10;;;;;;;14.63;76.09;99647.84;2841171;84;20983;-73
2021/09/24 03:40:26;;;;;;;13.58;3.00;;;;;;;14.56;73.53;99637.48;2876126;82;20991;-74
2021/09/24 03:44:29;;;;;;;12.03;3.10;;;;;;;14.56;72.72;99652.20;2886450;82;21074;-73
2021/09/24 03:48:31;;;;;;;7.55;2.67;;;;;;;14.54;72.09;99667.57;2886828;82;21070;-75
2021/09/24 03:52:33;;;;;;;6.53;2.65;;;;;;;14.54;71.84;99676.94;2886778;82;21106;-71
2021/09/24 03:56:35;;;;;;;5.58;2.80;;;;;;;14.57;71.46;99660.05;2886494;82;20987;-73
2021/09/24 04:00:37;;;;;;;6.40;2.77;;;;;;;14.57;72.25;99672.61;2886847;82;21034;-73
2021/09/24 04:04:43;;;;;;;11.45;3.65;;;;;;;14.54;72.34;99671.59;2886415;82;21069;-70
2021/09/24 04:08:45;;;;;;;13.78;3.33;;;;;;;14.55;72.67;99685.33;2886604;82;20956;-69
2021/09/24 04:12:47;;;;;;;10.28;3.77;;;;;;;14.56;72.24;99689.68;2886596;82;20995;-70
2021/09/24 04:16:49;;;;;;;10.25;3.42;;;;;;;14.56;71.49;99695.03;2884245;82;20991;-70
2021/09/24 04:20:52;;;;;;;3.72;2.40;;;;;;;14.61;71.19;99707.41;2886654;82;20963;-70
2021/09/24 04:24:55;;;;;;;16.30;4.40;;;;;;;14.64;71.85;99704.88;2886344;82;20968;-69
2021/09/24 04:29:00;;;;;;;4.08;1.90;;;;;;;14.60;72.26;99716.44;2886625;82;21042;-69
2021/09/24 04:33:03;;;;;;;10.50;3.02;;;;;;;14.59;72.86;99709.41;2886331;82;21281;-69
2021/09/24 04:37:05;;;;;;;12.47;3.50;;;;;;;14.54;72.98;99715.25;2886565;82;20975;-69
2021/09/24 04:41:08;;;;;;;9.45;3.00;;;;;;;14.53;73.84;99714.92;2897617;82;20971;-70
2021/09/24 04:45:13;;;;;;;8.83;3.70;;;;;;;14.51;73.63;99728.12;2898726;82;21015;-71
2021/09/24 04:49:17;;;;;;;14.25;3.62;;;;;;;14.49;74.44;99728.30;2899296;82;20999;-70
2021/09/24 04:53:47;;;;;;;9.25;3.87;;;;;;;14.45;74.91;99739.49;2898612;82;21027;-70
2021/09/24 04:57:48;;;;;;;10.30;3.27;;;;;;;14.39;75.57;99735.14;2898930;82;21018;-70
2021/09/24 05:01:57;;;;;;;12.93;4.10;;;;;;;14.39;73.99;99725.78;2898700;82;21065;-70
2021/09/24 05:05:59;;;;;;;11.78;3.52;;;;;;;14.46;73.87;99734.47;2899220;82;21027;-69
2021/09/24 05:10:01;;;;;;;14.05;2.92;;;;;;;14.47;74.31;99738.83;2898943;82;20986;-70
2021/09/24 05:14:06;;;;;;;5.75;2.92;;;;;;;14.42;74.82;99746.00;2898797;82;20992;-69
2021/09/24 05:18:11;;;;;;;14.90;4.22;;;;;;;14.39;76.25;99739.16;2899429;82;20972;-69
2021/09/24 05:22:13;;;;;;;7.05;3.10;;;;;;;14.45;77.14;99745.70;2899000;80;20991;-70
2021/09/24 05:26:15;;;;;;;7.83;3.15;;;;;;;14.48;78.15;99744.02;2899190;82;21373;-69
2021/09/24 05:30:57;;;;;;;8.25;2.98;;;;;;;14.51;77.66;99746.85;2899056;82;20959;-69
2021/09/24 05:35:00;;;;;;;18.40;3.25;;;;;;;14.47;77.66;99762.42;2883086;82;21042;-69
2021/09/24 05:39:01;;;;;;;12.80;3.83;;;;;;;14.46;77.52;99761.23;2864025;82;21074;-70
2021/09/24 05:43:03;;;;;;;10.58;3.67;;;;;;;14.46;77.41;99761.23;2863550;82;20984;-69
2021/09/24 05:47:08;;;;;;;12.70;4.67;;;;;;;14.39;77.68;99773.09;2864144;83;21000;-69
2021/09/24 05:51:10;;;;;;;4.30;2.65;;;;;;;14.38;77.17;99782.11;2864181;83;21015;-70
2021/09/24 05:55:22;;;;;;;11.15;3.98;;;;;;;14.34;77.70;99784.78;2864201;82;21053;-69
2021/09/24 05:59:27;;;;;;;6.87;3.50;;;;;;;14.33;77.78;99795.16;2864207;82;20944;-70
2021/09/24 06:03:31;;;;;;;6.45;3.37;;;;;;;14.30;77.43;99790.95;2864324;82;20983;-70
2021/09/24 06:07:32;;;;;;;11.40;2.95;;;;;;;14.27;77.75;99815.36;2864625;82;20991;-70
2021/09/24 06:11:35;;;;;;;18.75;3.67;;;;;;;14.26;77.99;99815.88;2864377;80;21050;-69
2021/09/24 06:15:53;;;;;;;7.65;2.95;;;;;;;14.25;77.75;99822.70;2874162;82;21027;-69
2021/09/24 06:19:57;;;;;;;16.52;3.83;;;;;;;14.25;77.71;99813.34;2898473;82;21513;-69
2021/09/24 06:23:59;;;;;;;33.10;3.92;;;;;;;14.37;77.62;99803.19;2899119;82;21529;-70
2021/09/24 06:28:01;;;;;;;6.70;2.55;;;;;;;14.45;77.92;99808.58;2899234;82;21289;-70
2021/09/24 06:32:05;;;;;;;14.87;3.40;;;;;;;14.52;77.54;99820.78;2899164;82;21041;-70
2021/09/24 06:36:07;;;;;;;10.32;3.10;;;;;;;14.59;77.88;99815.13;2898830;82;20983;-69
2021/09/24 06:40:22;;;;;;;9.80;4.30;;;;;;;14.68;77.45;99815.98;2888513;82;20973;-69
2021/09/24 06:44:24;;;;;;;13.30;3.45;;;;;;;14.79;77.18;99820.22;2802727;85;21003;-70
2021/09/24 06:48:27;;;;;;;6.78;2.55;;;;;;;14.86;77.48;99827.92;2803003;85;21043;-70
2021/09/24 06:52:29;;;;;;;15.30;4.33;;;;;;;14.92;77.19;99818.39;2802804;85;20991;-70
2021/09/24 06:56:32;;;;;;;9.00;3.83;;;;;;;14.99;76.56;99836.31;2802386;84;21011;-70
2021/09/24 07:00:37;;;;;;;15.50;4.65;;;;;;;15.12;76.75;99826.44;2802888;85;20991;-70
2021/09/24 07:04:39;;;;;;;11.77;3.77;;;;;;;15.24;76.00;99828.80;2802927;85;21054;-70
2021/09/24 07:08:41;;;;;;;14.68;2.87;;;;;;;15.23;76.18;99841.34;2802628;84;21216;-69
2021/09/24 07:12:43;;;;;;;16.07;4.28;;;;;;;15.22;76.62;99827.61;2802986;85;20960;-70
2021/09/24 07:16:46;;;;;;;7.92;2.58;;;;;;;15.24;75.66;99845.70;2802814;85;21007;-70
2021/09/24 07:20:50;;;;;;;14.60;6.08;;;;;;;15.21;76.61;99836.66;2802722;84;21115;-70
2021/09/24 07:25:04;;;;;;;11.85;3.75;;;;;;;15.20;76.62;99854.23;2802702;84;21019;-70
2021/09/24 07:29:06;;;;;;;14.35;3.55;;;;;;;15.17;76.59;99841.17;2802368;85;21022;-70
2021/09/24 07:33:18;;;;;;;9.23;3.58;;;;;;;15.10;75.64;99847.69;2802229;85;21062;-70
2021/09/24 07:37:20;;;;;;;18.60;5.53;;;;;;;15.05;76.73;99880.84;2802870;85;20975;-70
2021/09/24 07:41:23;;;;;;;13.30;4.12;;;;;;;15.03;76.89;99875.63;2803175;84;21097;-70
2021/09/24 07:45:38;;;;;;;10.10;3.85;;;;;;;14.98;76.48;99873.47;2767919;86;21104;-70
2021/09/24 07:49:42;;;;;;;11.43;3.40;;;;;;;14.97;76.57;99881.17;2842138;83;21038;-70
2021/09/24 07:53:45;;;;;;;10.23;3.45;;;;;;;14.94;77.24;99893.56;2841826;82;20955;-70
2021/09/24 07:57:52;;;;;;;8.70;3.33;;;;;;;14.97;76.92;99891.89;2841778;84;21022;-71
2021/09/24 08:01:52;;;;;;;15.68;5.08;;;;;;;14.96;77.67;99893.38;2840691;83;21006;-70
2021/09/24 08:05:54;;;;;;;10.00;3.22;;;;;;;14.99;78.00;99909.11;2882762;82;21024;-70
2021/09/24 08:09:57;;;;;;;10.95;3.00;;;;;;;15.04;76.97;99897.91;2887864;82;21020;-70
2021/09/24 08:14:06;;;;;;;15.23;4.72;;;;;;;15.16;77.77;99904.64;2887100;82;20957;-70
2021/09/24 08:18:13;;;;;;;15.63;4.30;;;;;;;15.25;77.22;99901.47;2884933;82;21716;-70
2021/09/24 08:22:27;;;;;;;11.60;2.92;;;;;;;15.39;76.97;99891.93;2885078;82;20952;-70
2021/09/24 08:26:31;;;;;;;9.70;3.60;;;;;;;15.45;76.79;99907.33;2881817;82;28235;-70
2021/09/24 08:30:37;;;;;;;12.18;4.30;;;;;;;15.53;76.82;99897.97;2888449;82;21086;-69
2021/09/24 08:34:39;;;;;;;16.35;4.35;;;;;;;15.64;77.04;99902.64;2888332;82;21027;-70
2021/09/24 08:39:19;;;;;;;11.78;4.75;;;;;;;15.66;75.77;99908.67;2888060;82;21059;-70
2021/09/24 08:43:21;;;;;;;16.20;4.17;;;;;;;15.60;76.03;99901.31;2895898;82;21053;-70
2021/09/24 08:47:24;;;;;;;11.40;4.33;;;;;;;15.60;76.35;99899.45;2895764;82;21102;-70
2021/09/24 08:51:28;;;;;;;14.98;4.90;;;;;;;15.71;76.91;99896.93;2896505;82;21058;-70
2021/09/24 08:55:31;;;;;;;22.73;4.42;;;;;;;15.77;74.96;99878.84;2896512;82;21002;-70
2021/09/24 08:59:33;;;;;;;10.63;4.95;;;;;;;15.89;75.03;99879.84;2896090;82;20987;-70
2021/09/24 09:03:43;;;;;;;10.85;3.52;;;;;;;16.01;75.16;99901.28;2896178;82;21023;-70
2021/09/24 09:07:46;;;;;;;10.30;4.65;;;;;;;16.04;73.04;99883.50;2895563;82;20990;-70
2021/09/24 09:11:54;;;;;;;17.77;4.55;;;;;;;16.09;74.17;99894.55;2895998;82;20991;-70
2021/09/24 09:16:02;;;;;;;14.95;4.58;;;;;;;16.21;74.11;99923.22;2895888;82;21050;-70
2021/09/24 09:20:27;;;;;;;17.35;3.58;;;;;;;16.31;74.21;99902.90;2896027;82;21055;-70
2021/09/24 09:24:30;;;;;;;19.00;4.17;;;;;;;16.49;72.95;99921.94;2895989;81;21096;-70
2021/09/24 09:28:41;;;;;;;7.40;3.33;;;;;;;16.60;73.09;99923.41;2895691;82;20964;-70
2021/09/24 09:33:04;;;;;;;13.15;4.08;;;;;;;16.59;72.08;99919.89;2896220;82;20995;-71
2021/09/24 09:37:19;;;;;;;11.35;3.80;;;;;;;16.66;72.88;99906.09;2896130;82;21054;-69
2021/09/24 09:41:24;;;;;;;9.43;3.60;;;;;;;16.66;71.04;99917.36;2893988;82;21333;-70
2021/09/24 09:45:28;;;;;;;7.33;3.02;;;;;;;16.60;71.43;99918.88;2871601;82;21428;-71
2021/09/24 09:49:30;;;;;;;9.53;3.27;;;;;;;16.70;71.84;99918.19;2901130;82;20995;-70
2021/09/24 09:53:34;;;;;;;13.85;2.50;;;;;;;16.99;73.32;99927.45;2892303;82;21289;-71
2021/09/24 09:57:37;;;;;;;15.45;4.90;;;;;;;16.91;67.99;99936.88;2818864;83;21342;-70
2021/09/24 10:01:38;;;;;;;16.45;5.03;;;;;;;16.96;67.62;99922.41;2812962;83;20941;-71
2021/09/24 10:05:42;;;;;;;12.70;3.47;;;;;;;17.24;71.36;99906.31;2812143;83;20941;-71
2021/09/24 10:10:15;;;;;;;14.25;4.58;;;;;;;17.42;70.00;99919.44;2812773;84;20977;-70
2021/09/24 10:14:17;;;;;;;19.23;5.33;;;;;;;17.66;69.19;99933.70;2812312;84;20929;-69
2021/09/24 10:18:19;;;;;;;14.05;3.25;;;;;;;17.89;68.76;99924.78;2812508;84;20980;-71
2021/09/24 10:22:24;;;;;;;10.70;3.95;;;;;;;18.06;67.81;99930.33;2812540;84;21141;-70
2021/09/24 10:26:40;;;;;;;9.53;3.50;;;;;;;18.12;66.61;99919.34;2781046;84;21461;-70
2021/09/24 10:30:42;;;;;;;13.62;4.55;;;;;;;18.07;65.94;99919.89;2773223;83;21025;-70
2021/09/24 10:35:10;;;;;;;15.23;4.60;;;;;;;18.09;66.17;99919.22;2804793;85;21020;-70
2021/09/24 10:39:34;;;;;;;8.10;3.77;;;;;;;17.96;66.19;99938.64;2804859;85;20957;-69
2021/09/24 10:43:54;;;;;;;16.27;4.12;;;;;;;18.05;65.35;99921.94;2816936;83;21074;-70
2021/09/24 10:48:38;;;;;;;22.32;5.75;;;;;;;18.08;65.25;99933.70;2821928;84;21004;-71
2021/09/24 10:52:40;;;;;;;19.55;4.45;;;;;;;18.10;63.28;99936.19;2821364;83;20964;-69
2021/09/24 10:57:04;;;;;;;16.95;4.60;;;;;;;18.16;65.37;99911.22;2821852;84;20998;-71
2021/09/24 11:01:33;;;;;;;9.68;4.05;;;;;;;18.16;62.46;99926.55;2785513;84;20961;-69
2021/09/24 11:06:04;;;;;;;19.32;5.10;;;;;;;18.05;62.05;99947.50;2821570;84;21115;-70
2021/09/24 11:10:08;;;;;;;30.85;6.67;;;;;;;18.03;61.65;99928.53;2788188;84;21039;-70
2021/09/24 11:14:41;;;;;;;11.55;5.05;;;;;;;17.97;64.98;99941.66;2804108;83;21020;-70
2021/09/24 11:19:01;;;;;;;12.40;4.80;;;;;;;18.16;64.50;99931.94;2779166;84;21039;-71
2021/09/24 11:23:40;;;;;;;12.58;3.70;;;;;;;18.46;63.02;99905.00;2823657;84;21051;-70
2021/09/24 11:27:45;;;;;;;13.45;3.08;;;;;;;18.45;59.61;99933.80;2817117;84;21416;-70
2021/09/24 11:32:20;;;;;;;6.55;4.20;;;;;;;18.34;61.04;99910.02;2823725;84;20961;-70
2021/09/24 11:37:01;;;;;;;26.37;5.00;;;;;;;18.12;61.68;99944.91;2823056;83;21046;-70
2021/09/24 11:41:12;;;;;;;13.48;4.20;;;;;;;17.99;62.57;99936.09;2820742;84;21020;-70
2021/09/24 11:45:31;;;;;;;12.28;3.22;;;;;;;18.39;59.70;99921.91;2805944;84;21463;-70
2021/09/24 11:49:48;;;;;;;11.83;3.33;;;;;;;18.59;61.69;99918.64;2799308;83;20969;-70
2021/09/24 11:53:54;;;;;;;6.85;2.87;;;;;;;18.90;58.74;99889.78;2798004;83;20993;-70
2021/09/24 11:58:01;;;;;;;16.23;3.25;;;;;;;18.97;57.89;99900.96;2823237;83;20992;-69
2021/09/24 12:02:07;;;;;;;8.88;2.70;;;;;;;19.02;56.69;99911.70;2798983;83;21177;-69
2021/09/24 12:06:13;;;;;;;9.03;2.93;;;;;;;18.95;56.17;99885.50;2819126;83;21001;-70
2021/09/24 12:10:15;;;;;;;4.62;2.47;;;;;;;18.95;56.17;99885.50;2842423;83;20961;-69
2021/09/24 12:14:20;;;;;;;14.95;3.67;;;;;;;19.12;56.71;99909.55;2836925;83;20926;-69
2021/09/24 12:18:31;;;;;;;15.32;5.08;;;;;;;19.12;57.39;99896.89;2832488;83;21024;-69
2021/09/24 12:22:30;;;;;;;8.53;2.67;;;;;;;19.26;55.77;99903.27;2780786;83;20996;-70
2021/09/24 12:26:39;;;;;;;4.42;2.35;;;;;;;19.20;54.04;99913.98;2807925;83;20965;-71
2021/09/24 12:30:42;;;;;;;11.30;3.45;;;;;;;19.18;54.52;99908.77;2883670;82;20944;-69
2021/09/24 12:35:09;;;;;;;12.82;3.85;;;;;;;19.17;54.92;99904.41;2895262;80;21021;-70
2021/09/24 12:39:18;;;;;;;5.47;2.52;;;;;;;19.06;54.52;99919.73;2896614;82;21002;-69
2021/09/24 12:43:25;;;;;;;8.78;3.35;;;;;;;19.02;55.88;99910.36;2896610;82;20991;-70
2021/09/24 12:47:33;;;;;;;6.83;2.47;;;;;;;19.06;56.04;99917.03;2886772;82;21094;-71
2021/09/24 12:51:35;;;;;;;6.55;2.77;;;;;;;19.07;55.91;99915.50;2896209;82;21002;-70
2021/09/24 12:55:37;;;;;;;9.30;3.30;;;;;;;19.01;56.63;99916.78;2896642;82;20982;-70
2021/09/24 12:59:40;;;;;;;11.20;2.83;;;;;;;18.93;55.02;99909.11;2868353;80;21018;-71
2021/09/24 13:03:42;;;;;;;5.45;3.12;;;;;;;18.80;53.84;99912.98;2896054;82;21078;-71
2021/09/24 13:08:06;;;;;;;5.53;2.72;;;;;;;18.72;54.13;99905.84;2896747;82;21054;-71
2021/09/24 13:12:09;;;;;;;7.87;2.33;;;;;;;18.66;54.50;99913.34;2870192;82;20971;-67
2021/09/24 13:20:25;;;;;;;6.65;1.67;;;;;;;18.61;55.85;99931.94;2812939;78;21313;-73
2021/09/24 13:24:39;;;;;;;7.62;2.10;;;;;;;18.54;57.00;99939.92;2806037;84;21024;-71
2021/09/24 13:28:42;;;;;;;8.88;3.45;;;;;;;18.59;58.82;99942.06;2805980;81;21216;-73
2021/09/24 13:32:44;;;;;;;20.23;5.75;;;;;;;18.66;59.06;99932.20;2805540;84;20961;-71
2021/09/24 13:37:05;;;;;;;8.78;3.67;;;;;;;18.69;59.62;99940.75;2805430;83;20981;-74
2021/09/24 13:41:09;;;;;;;26.23;2.87;;;;;;;18.70;60.19;99927.61;2795558;81;21012;-71
2021/09/24 13:45:12;;;;;;;15.78;3.58;;;;;;;18.66;59.77;99920.89;2804766;85;21004;-71
2021/09/24 13:49:14;;;;;;;9.88;2.33;;;;;;;18.69;60.28;99934.52;2797317;84;21005;-74
2021/09/24 13:53:42;;;;;;;9.48;2.40;;;;;;;18.67;59.75;99937.91;2744608;86;20992;-74
2021/09/24 13:57:44;;;;;;;6.80;3.10;;;;;;;18.66;60.47;99927.63;2838521;83;21011;-74
2021/09/24 14:01:46;;;;;;;9.33;3.15;;;;;;;18.67;62.88;99929.83;2834839;83;20983;-73
2021/09/24 14:05:49;;;;;;;16.80;3.85;;;;;;;18.55;63.77;99931.64;2833076;83;20980;-74
2021/09/24 14:10:15;;;;;;;10.13;3.83;;;;;;;18.45;64.13;99939.68;2836093;83;21025;-74
2021/09/24 14:14:18;;;;;;;11.68;3.40;;;;;;;18.39;65.35;99955.56;2830510;83;20970;-73
2021/09/24 14:18:22;;;;;;;13.80;3.50;;;;;;;18.28;65.34;99956.05;2820409;83;20958;-68
2021/09/24 14:22:33;;;;;;;8.35;2.75;;;;;;;18.22;66.51;99944.64;2852609;82;21317;-67
2021/09/24 14:26:36;;;;;;;9.10;2.87;;;;;;;18.15;66.79;99956.66;2825101;83;21036;-65
2021/09/24 14:30:42;;;;;;;6.78;3.22;;;;;;;18.13;68.06;99963.58;2819233;84;21020;-67
2021/09/24 14:34:49;;;;;;;19.23;3.40;;;;;;;18.11;68.19;99954.01;2782428;85;21035;-66
2021/09/24 14:38:57;;;;;;;7.20;3.35;;;;;;;18.10;68.51;99959.92;2757819;85;21053;-65
2021/09/24 14:42:59;;;;;;;11.88;3.77;;;;;;;18.15;68.89;99950.45;2767032;85;21008;-67
2021/09/24 14:47:05;;;;;;;4.12;2.42;;;;;;;18.12;69.09;99956.53;2877082;82;21544;-68
2021/09/24 14:51:14;;;;;;;7.00;3.08;;;;;;;18.09;69.72;99963.63;2877709;82;21078;-70
2021/09/24 14:55:16;;;;;;;3.92;2.10;;;;;;;18.08;69.83;99975.91;2877933;82;20999;-73
2021/09/24 14:59:19;;;;;;;4.15;2.60;;;;;;;18.03;70.22;99961.65;2829802;82;21008;-70
2021/09/24 15:03:21;;;;;;;3.65;1.50;;;;;;;17.99;69.85;99966.55;2850801;82;21421;-70
2021/09/24 15:07:23;;;;;;;7.58;2.65;;;;;;;17.95;71.23;99973.81;2877612;82;21042;-70
2021/09/24 15:11:25;;;;;;;11.80;3.72;;;;;;;17.93;71.87;99975.33;2876889;82;21401;-70
2021/09/24 15:15:29;;;;;;;4.55;2.52;;;;;;;17.92;72.13;99970.15;2877593;82;21103;-70
2021/09/24 15:19:35;;;;;;;5.60;2.87;;;;;;;17.87;72.32;99979.25;2882264;82;20981;-71
2021/09/24 15:23:37;;;;;;;7.42;3.17;;;;;;;17.84;72.71;99981.29;2890588;82;21025;-70
2021/09/24 15:27:40;;;;;;;4.78;2.62;;;;;;;17.87;73.23;99986.83;2890923;81;20988;-70
2021/09/24 15:31:43;;;;;;;3.15;1.85;;;;;;;17.88;73.18;99979.58;2890346;82;21351;-70
2021/09/24 15:35:46;;;;;;;3.77;2.80;;;;;;;17.87;72.74;99975.22;2888702;82;20956;-70
2021/09/24 15:39:48;;;;;;;4.15;2.83;;;;;;;17.88;73.16;99973.70;2888922;82;20984;-70
2021/09/24 15:43:52;;;;;;;5.08;2.02;;;;;;;17.87;73.43;99985.98;2887718;82;20975;-70
2021/09/24 15:47:54;;;;;;;6.28;2.12;;;;;;;17.80;73.76;99982.67;2881718;81;21066;-70
2021/09/24 15:52:10;;;;;;;6.15;1.98;;;;;;;17.78;74.40;99988.75;2852926;82;21060;-70
2021/09/24 15:56:18;;;;;;;5.08;2.60;;;;;;;17.81;74.15;99997.80;2838027;82;21041;-70
2021/09/24 16:00:19;;;;;;;5.55;3.30;;;;;;;17.89;73.81;100001.45;2841637;83;21041;-70
2021/09/24 16:04:22;;;;;;;12.23;3.85;;;;;;;17.91;74.37;99996.73;2841151;84;21666;-70
2021/09/24 16:08:26;;;;;;;10.08;3.42;;;;;;;17.92;74.29;99999.75;2879612;82;21963;-70
2021/09/24 16:12:28;;;;;;;7.22;4.35;;;;;;;17.91;74.88;100003.45;2890071;82;21040;-74
2021/09/24 16:16:40;;;;;;;9.28;3.98;;;;;;;17.89;75.11;99996.89;2890625;82;21062;-73
2021/09/24 16:20:44;;;;;;;8.35;3.90;;;;;;;17.85;75.45;99996.41;2866752;81;21059;-75
2021/09/24 16:24:46;;;;;;;6.03;3.20;;;;;;;17.74;75.14;100003.58;2896458;82;21005;-70
2021/09/24 16:28:51;;;;;;;8.38;4.00;;;;;;;17.63;75.60;100010.22;2896241;82;21035;-70
2021/09/24 16:32:52;;;;;;;5.08;2.72;;;;;;;17.53;75.99;100001.04;2895854;82;21019;-71
2021/09/24 16:36:57;;;;;;;4.97;2.70;;;;;;;17.49;76.07;100009.63;2895755;82;20936;-74
2021/09/24 16:40:59;;;;;;;5.70;3.55;;;;;;;17.49;76.32;100013.17;2896442;82;20963;-72
2021/09/24 16:45:25;;;;;;;7.28;3.62;;;;;;;17.42;76.85;100020.26;2895472;82;21019;-72
2021/09/24 16:49:28;;;;;;;6.90;3.55;;;;;;;17.36;77.33;100014.25;2896000;82;21070;-74
2021/09/24 16:53:32;;;;;;;5.78;2.70;;;;;;;17.36;77.48;100007.53;2896126;82;21018;-74
2021/09/24 16:57:34;;;;;;;4.70;2.47;;;;;;;17.41;77.21;100012.72;2895894;82;20987;-74
2021/09/24 17:01:38;;;;;;;3.30;2.37;;;;;;;17.44;76.62;100010.16;2896303;82;21007;-75
2021/09/24 17:05:41;;;;;;;8.18;3.22;;;;;;;17.47;76.52;100007.11;2896459;82;21009;-73
2021/09/24 17:09:45;;;;;;;3.12;2.12;;;;;;;17.51;76.60;100021.05;2896351;82;21058;-71
2021/09/24 17:13:48;;;;;;;2.53;1.83;;;;;;;17.51;76.91;100015.17;2896562;82;21007;-71
2021/09/24 17:17:51;;;;;;;5.05;1.90;;;;;;;17.54;76.75;100016.65;2896137;82;21031;-71
2021/09/24 17:21:53;;;;;;;13.78;4.30;;;;;;;17.52;76.80;100012.81;2886199;82;21034;-72
2021/09/24 17:25:57;;;;;;;10.80;6.00;;;;;;;17.51;76.97;100021.90;2861457;82;20968;-71
2021/09/24 17:29:59;;;;;;;5.50;3.60;;;;;;;17.55;76.87;100031.28;2876923;82;20976;-70
2021/09/24 17:34:08;;;;;;;3.25;2.33;;;;;;;17.56;76.95;100027.57;2886247;82;20960;-70
2021/09/24 17:38:11;;;;;;;4.67;2.58;;;;;;;17.59;77.01;100029.08;2886189;81;20968;-72
2021/09/24 17:42:19;;;;;;;10.08;3.45;;;;;;;17.63;77.14;100040.30;2886862;82;20976;-70
2021/09/24 17:46:22;;;;;;;3.83;2.80;;;;;;;17.65;77.29;100041.80;2886902;82;20984;-71
2021/09/24 17:50:26;;;;;;;8.75;3.35;;;;;;;17.66;77.46;100043.97;2852619;82;21317;-72
2021/09/24 17:54:28;;;;;;;9.88;2.58;;;;;;;17.66;77.47;100052.03;2886317;82;21022;-72
2021/09/24 18:04:13;;;;;;;3.62;2.83;;;;;;;17.69;77.49;100063.28;2893035;80;67668;-73
2021/09/24 18:08:15;;;;;;;4.45;3.22;;;;;;;17.70;77.67;100072.20;2880181;79;21099;-68
2021/09/24 18:12:18;;;;;;;7.10;2.87;;;;;;;17.72;77.76;100078.73;2868076;81;21016;-73
2021/09/24 18:16:20;;;;;;;5.12;2.83;;;;;;;17.72;77.94;100082.77;2860122;81;21108;-73
2021/09/24 18:20:24;;;;;;;7.22;1.90;;;;;;;17.74;78.07;100085.63;2858045;81;21096;-72
2021/09/24 18:24:26;;;;;;;6.25;2.87;;;;;;;17.76;78.11;100090.31;2860440;83;21009;-72
2021/09/24 18:28:27;;;;;;;3.95;2.42;;;;;;;17.78;78.07;100090.97;2859791;82;21030;-73
2021/09/24 18:32:29;;;;;;;5.08;2.52;;;;;;;17.80;78.18;100097.01;2873369;81;21034;-73
2021/09/24 18:36:31;;;;;;;3.20;2.67;;;;;;;17.81;78.24;100101.89;2952063;78;20980;-72
2021/09/24 18:40:33;;;;;;;4.30;2.33;;;;;;;17.82;78.21;100111.11;2972299;78;21477;-72
2021/09/24 18:44:34;;;;;;;4.37;3.08;;;;;;;17.80;78.31;100102.91;2961081;80;20994;-75
2021/09/24 18:48:36;;;;;;;3.02;2.75;;;;;;;17.82;78.19;100102.22;2875371;80;21046;-72
2021/09/24 18:56:55;;;;;;;2.10;1.65;;;;;;;17.80;78.16;100111.80;2836200;82;21059;-69
2021/09/24 19:01:09;;;;;;;3.15;1.92;;;;;;;17.80;77.92;100112.33;2823608;84;21046;-68
2021/09/24 19:05:11;;;;;;;4.37;2.90;;;;;;;17.80;77.94;100113.15;2824400;84;21007;-70
2021/09/24 19:09:13;;;;;;;2.58;2.17;;;;;;;17.84;77.84;100117.67;2824709;84;21022;-69
2021/09/24 19:13:15;;;;;;;3.22;2.25;;;;;;;17.83;77.57;100115.48;2845735;82;20990;-70
2021/09/24 19:17:17;;;;;;;3.90;2.67;;;;;;;17.83;77.73;100114.13;2824558;84;21257;-69
2021/09/24 19:21:19;;;;;;;4.12;1.98;;;;;;;17.83;77.55;100116.83;2839037;82;21025;-68
2021/09/24 19:25:21;;;;;;;3.12;2.30;;;;;;;17.83;77.63;100116.83;2957121;80;21101;-69
2021/09/24 19:29:24;;;;;;;3.27;2.15;;;;;;;17.83;77.65;100118.69;2942765;80;21038;-69
2021/09/24 19:33:29;;;;;;;4.12;2.67;;;;;;;17.82;77.74;100119.19;2932786;80;21019;-69